Daily Stat PackHorse Racing Tips

Todays Racecards Daily Stat Pack

Our Daily Stat Pack provides you with the details of the best jockeys and trainers at all the courses racing today.

We start by looking for jockeys and trainers who have had a minimum of a 17% strike rate over the course they are running at today…

We recommend that when considering the following runners in your analysis you remove any at 16/1 or higher. To get profitable tips each day based on this data please visit the UKRN Early Bird service here.

Chester

DATE / TIME HORSE TRAINER TRAINER WINS TRAINER RUNS TRAINER SR
2017-07-15 13:50:00 Palmer B Smart 10 52 19.23
2017-07-15 15:00:00 Viscount Barfield A Balding 50 231 21.65
2017-07-15 15:35:00 Look My Way A Balding 50 231 21.65
2017-07-15 16:10:00 Comprise Michael Bell 10 55 18.18
DATE / TIME HORSE JOCKEY JOCKEY WINS JOCKEY RUNS JOCKEY SR
2017-07-15 13:50:00 Jasi P Makin 12 63 19.05
2017-07-15 13:50:00 June Dog P Makin 12 63 19.05
2017-07-15 13:50:00 Graphite Girl R Hornby 5 20 25
2017-07-15 14:25:00 Southern Belle P Makin 12 63 19.05
2017-07-15 14:25:00 Hope Solo R Hornby 5 20 25
2017-07-15 14:25:00 Turanga Leela R Powell 3 17 17.65
2017-07-15 15:00:00 Salateen P Makin 12 63 19.05
2017-07-15 15:00:00 Viscount Barfield R Hornby 5 20 25
2017-07-15 15:35:00 Here And Now P Makin 12 63 19.05
2017-07-15 15:35:00 Look My Way R Hornby 5 20 25
2017-07-15 16:10:00 Comprise P Makin 12 63 19.05
2017-07-15 16:10:00 Monks Stand R Hornby 5 20 25
2017-07-15 16:10:00 Captain Sue R Powell 3 17 17.65
2017-07-15 16:40:00 Cape Banjo P Makin 12 63 19.05

Curragh

DATE / TIME HORSE TRAINER TRAINER WINS TRAINER RUNS TRAINER SR
2017-07-15 15:10:00 Medal Of Honour J O’Brien 9 49 18.37
2017-07-15 16:20:00 Rattling Jewel Miss N McKenna 3 16 18.75
2017-07-15 16:50:00 Commander Grigio J Stack 3 12 25
2017-07-15 17:55:00 Coronet J Gosden 6 12 50
2017-07-15 17:55:00 Enable J Gosden 6 12 50
2017-07-15 17:55:00 Intricately J O’Brien 9 49 18.37

Hamilton

DATE / TIME HORSE TRAINER TRAINER WINS TRAINER RUNS TRAINER SR
2017-07-15 18:05:00 Undercover Brother D O’Meara 24 128 18.75
2017-07-15 18:05:00 Villa Tora M Johnston 94 440 21.36
2017-07-15 18:35:00 Bronze Beau K Stubbs 10 42 23.81
2017-07-15 19:05:00 Inexes Mrs M Fife 13 69 18.84
2017-07-15 19:05:00 Highly Sprung M Johnston 94 440 21.36
2017-07-15 19:35:00 Kajaki K A Ryan 70 311 22.51
2017-07-15 20:35:00 Kensington Palace Mrs M Fife 13 69 18.84
2017-07-15 20:35:00 Cline K A Ryan 70 311 22.51
2017-07-15 20:35:00 Pennington M Johnston 94 440 21.36
DATE / TIME HORSE JOCKEY JOCKEY WINS JOCKEY RUNS JOCKEY SR
2017-07-15 18:05:00 Undercover Brother S H James 9 51 17.65
2017-07-15 18:05:00 Ray Purchase J Haynes 15 65 23.08
2017-07-15 18:05:00 Villa Tora J Fanning 91 434 20.97
2017-07-15 18:35:00 Bronze Beau S H James 9 51 17.65
2017-07-15 18:35:00 Groundworker J Fanning 91 434 20.97
2017-07-15 19:05:00 Rosina Kevin Stott 9 49 18.37
2017-07-15 19:05:00 Highly Sprung J Fanning 91 434 20.97
2017-07-15 19:05:00 Baron Run J Haynes 15 65 23.08
2017-07-15 19:35:00 Kajaki Kevin Stott 9 49 18.37
2017-07-15 19:35:00 Ligeti J Fanning 91 434 20.97
2017-07-15 19:35:00 Indy S H James 9 51 17.65
2017-07-15 20:35:00 Cline Kevin Stott 9 49 18.37
2017-07-15 20:35:00 Templemary Boy S H James 9 51 17.65
2017-07-15 20:35:00 Pennington J Fanning 91 434 20.97
2017-07-15 20:35:00 Coral Princess J Haynes 15 65 23.08
2017-07-15 21:05:00 Lil Sophella J Fanning 91 434 20.97
2017-07-15 21:05:00 Rinaria J Haynes 15 65 23.08
2017-07-15 21:05:00 Jackie Ellis S H James 9 51 17.65

Newmarket (July)

DATE / TIME HORSE TRAINER TRAINER WINS TRAINER RUNS TRAINER SR
2017-07-15 13:45:00 Juliet Capulet J Gosden 71 379 18.73
2017-07-15 13:45:00 Poetic Charm C Appleby 32 159 20.13
2017-07-15 13:45:00 Quargent J Noseda 34 169 20.12
2017-07-15 13:45:00 Sizzling A O’Brien 9 36 25
2017-07-15 13:45:00 The Mums J Gosden 71 379 18.73
2017-07-15 14:15:00 Gymnaste J Gosden 71 379 18.73
2017-07-15 15:25:00 Tashweeq J Gosden 71 379 18.73
2017-07-15 15:25:00 Steady Pace S bin Suroor 55 254 21.65
2017-07-15 15:25:00 Boomshackerlacker G Baker 6 25 24
2017-07-15 16:00:00 Aqabah C Appleby 32 159 20.13
2017-07-15 16:00:00 Gustav Klimt A O’Brien 9 36 25
2017-07-15 16:00:00 Zaman C Appleby 32 159 20.13
2017-07-15 16:35:00 Caravaggio A O’Brien 9 36 25
2017-07-15 16:35:00 Intelligence Cross A O’Brien 9 36 25
2017-07-15 17:05:00 Zaidiyn B Ellison 5 28 17.86
2017-07-15 17:05:00 Quloob O Burrows 3 15 20
2017-07-15 17:05:00 Silken Dancer C Appleby 32 159 20.13
DATE / TIME HORSE JOCKEY JOCKEY WINS JOCKEY RUNS JOCKEY SR
2017-07-15 13:45:00 Janabiya H Bentley 22 129 17.05
2017-07-15 13:45:00 Poetic Charm W Buick 68 368 18.48
2017-07-15 13:45:00 Sizzling R L Moore 83 451 18.4
2017-07-15 14:15:00 On Her Toes W Buick 68 368 18.48
2017-07-15 14:15:00 Miss Infinity P McDonald 3 15 20
2017-07-15 14:15:00 Gymnaste R L Moore 83 451 18.4
2017-07-15 14:15:00 Tropical Rock H Bentley 22 129 17.05
2017-07-15 14:50:00 Masham Star P McDonald 3 15 20
2017-07-15 14:50:00 Executive Force W Buick 68 368 18.48
2017-07-15 14:50:00 City Of Joy R L Moore 83 451 18.4
2017-07-15 14:50:00 Mountain Angel H Bentley 22 129 17.05
2017-07-15 15:25:00 Tabarrak R L Moore 83 451 18.4
2017-07-15 15:25:00 Sutter County W Buick 68 368 18.48
2017-07-15 15:25:00 Von Blucher P McDonald 3 15 20
2017-07-15 15:25:00 Kadrizzi H Bentley 22 129 17.05
2017-07-15 16:00:00 Aqabah W Buick 68 368 18.48
2017-07-15 16:00:00 Gustav Klimt R L Moore 83 451 18.4
2017-07-15 16:00:00 Maksab P McDonald 3 15 20
2017-07-15 16:35:00 Intisaab W Buick 68 368 18.48
2017-07-15 16:35:00 Limato H Bentley 22 129 17.05
2017-07-15 16:35:00 Caravaggio R L Moore 83 451 18.4
2017-07-15 17:05:00 Opposition R L Moore 83 451 18.4
2017-07-15 17:05:00 Panko H Bentley 22 129 17.05
2017-07-15 17:05:00 Silken Dancer W Buick 68 368 18.48
2017-07-15 17:05:00 Sporting Times P McDonald 3 15 20

Salisbury

DATE / TIME HORSE TRAINER TRAINER WINS TRAINER RUNS TRAINER SR
2017-07-15 17:50:00 Blackheath E Walker 5 29 17.24
2017-07-15 18:50:00 Robin Weathers W Haggas 14 70 20
2017-07-15 18:50:00 Island Of Life S bin Suroor 16 75 21.33
2017-07-15 19:20:00 Harbour Rock D Simcock 14 67 20.9
2017-07-15 19:50:00 Solo Mission W Haggas 14 70 20
2017-07-15 19:50:00 Balashakh D Simcock 14 67 20.9
2017-07-15 19:50:00 Oxford Don D Simcock 14 67 20.9
2017-07-15 20:50:00 Turning The Table D Simcock 14 67 20.9
2017-07-15 20:50:00 Prosper R Varian 13 64 20.31
2017-07-15 20:50:00 Standing Rock J Gosden 20 106 18.87
DATE / TIME HORSE JOCKEY JOCKEY WINS JOCKEY RUNS JOCKEY SR
2017-07-15 17:50:00 General Zoff Joshua Bryan 3 10 30
2017-07-15 18:20:00 Coastal Cyclone Joshua Bryan 3 10 30
2017-07-15 19:20:00 British Embassy Joshua Bryan 3 10 30

York

DATE / TIME HORSE TRAINER TRAINER WINS TRAINER RUNS TRAINER SR
2017-07-15 13:55:00 Firnas C Appleby 9 51 17.65
2017-07-15 14:30:00 Clever Cookie P Niven 4 19 21.05
2017-07-15 14:30:00 Platitude Sir M Stoute 36 192 18.75
2017-07-15 14:30:00 Rare Rhythm C Appleby 9 51 17.65
2017-07-15 15:05:00 Victory Bond W Haggas 48 222 21.62
2017-07-15 15:05:00 Ballet Concerto Sir M Stoute 36 192 18.75
2017-07-15 16:15:00 Take Cover D Griffiths 4 19 21.05
2017-07-15 16:45:00 Theydon Grey W Haggas 48 222 21.62
2017-07-15 17:15:00 Angel Force D Griffiths 4 19 21.05
DATE / TIME HORSE JOCKEY JOCKEY WINS JOCKEY RUNS JOCKEY SR
2017-07-15 16:45:00 Theydon Grey G Cox 3 12 25

To find the strongest runners we are looking for those horses that have both a jockey and trainer with over a 17% strike rate in todays race cards. We then check out their stats to find the horses that you should be looking at closely in todays racing based on this information.

We recommend that when considering the following runners in your analysis you remove any at 16/1 or higher.

To get profitable tips each day based on this data please visit the UKRN Early Bird service here.

Today’s strongest runners are:
  • 15:00 Chester
  • 16:10 Chester
  • 18:05 Hamilton

HORSE: Viscount Barfield

TRAINER: A Balding

TRAINER STRIKE RATE: 21.65%

JOCKEY: R Hornby

JOCKEY STRIKE RATE: 25%

S/R FOR THIS GOING: 0%

S/R FOR THIS DISTANCE: 26%

S/R FOR THIS COURSE: 50%

HORSE: Comprise

TRAINER: Michael Bell

TRAINER STRIKE RATE: 18.18%

JOCKEY: P Makin

JOCKEY STRIKE RATE: 19.05%

S/R FOR THIS GOING: 0%

S/R FOR THIS DISTANCE: 33%

S/R FOR THIS COURSE: 0%

HORSE: Undercover Brother

TRAINER: D O’Meara

TRAINER STRIKE RATE: 18.75%

JOCKEY: S H James

JOCKEY STRIKE RATE: 17.65%

S/R FOR THIS GOING: 0%

S/R FOR THIS DISTANCE: 50%

S/R FOR THIS COURSE: 100%

HORSE: Villa Tora

TRAINER: M Johnston

TRAINER STRIKE RATE: 21.36%

JOCKEY: J Fanning

JOCKEY STRIKE RATE: 20.97%

S/R FOR THIS GOING: 0%

S/R FOR THIS DISTANCE: 20%

S/R FOR THIS COURSE: 50%

  • 18:35 Hamilton
  • 19:05 Hamilton
  • 19:35 Hamilton

HORSE: Bronze Beau

TRAINER: K Stubbs

TRAINER STRIKE RATE: 23.81%

JOCKEY: S H James

JOCKEY STRIKE RATE: 17.65%

S/R FOR THIS GOING: 0%

S/R FOR THIS DISTANCE: 10%

S/R FOR THIS COURSE: 35.29%

HORSE: Highly Sprung

TRAINER: M Johnston

TRAINER STRIKE RATE: 21.36%

JOCKEY: J Fanning

JOCKEY STRIKE RATE: 20.97%

S/R FOR THIS GOING: 0%

S/R FOR THIS DISTANCE: 14%

S/R FOR THIS COURSE: 0%

HORSE: Kajaki

TRAINER: K A Ryan

TRAINER STRIKE RATE: 22.51%

JOCKEY: Kevin Stott

JOCKEY STRIKE RATE: 18.37%

S/R FOR THIS GOING: 0%

S/R FOR THIS DISTANCE: 25%

S/R FOR THIS COURSE: 0%

  • 14:15 Newmarket (July)
  • 16:00 Newmarket (July)
  • 16:35 Newmarket (July)

HORSE: Gymnaste

TRAINER: J Gosden

TRAINER STRIKE RATE: 18.73%

JOCKEY: R L Moore

JOCKEY STRIKE RATE: 18.4%

S/R FOR THIS GOING: 0%

S/R FOR THIS DISTANCE: 33%

S/R FOR THIS COURSE: 0%

HORSE: Gustav Klimt

TRAINER: A O’Brien

TRAINER STRIKE RATE: 25%

JOCKEY: R L Moore

JOCKEY STRIKE RATE: 18.4%

S/R FOR THIS GOING: 0%

S/R FOR THIS DISTANCE: 50%

S/R FOR THIS COURSE: 0%

HORSE: Caravaggio

TRAINER: A O’Brien

TRAINER STRIKE RATE: 25%

JOCKEY: R L Moore

JOCKEY STRIKE RATE: 18.4%

S/R FOR THIS GOING: 100%

S/R FOR THIS DISTANCE: 100%

S/R FOR THIS COURSE: 0%

  • 16:45 York

HORSE: Theydon Grey

TRAINER: W Haggas

TRAINER STRIKE RATE: 21.62%

JOCKEY: G Cox

JOCKEY STRIKE RATE: 25%

S/R FOR THIS GOING: 0%

S/R FOR THIS DISTANCE: 0%

S/R FOR THIS COURSE: 66.67%

* The Daily Stat Pack is a free tool based on statistics from todays racecards that is designed to be combined with your other race analysis.

Tags

Related Articles

Leave a Reply

Your email address will not be published. Required fields are marked *

This site uses Akismet to reduce spam. Learn how your comment data is processed.

Close
Close